sensor_id;sensor_type;location;lat;lon;timestamp;temperature;humidity
34460;DHT22;20704;51.260;22.558;2022-09-28T00:03:25;10.90;99.90
34460;DHT22;20704;51.260;22.558;2022-09-28T00:05:52;11.00;99.90
34460;DHT22;20704;51.260;22.558;2022-09-28T00:08:18;11.00;99.90
34460;DHT22;20704;51.260;22.558;2022-09-28T00:13:10;11.10;99.90
34460;DHT22;20704;51.260;22.558;2022-09-28T00:22:55;11.20;99.90
34460;DHT22;20704;51.260;22.558;2022-09-28T00:30:16;11.30;99.90
34460;DHT22;20704;51.260;22.558;2022-09-28T00:32:42;11.30;99.90
34460;DHT22;20704;51.260;22.558;2022-09-28T00:35:12;11.40;99.90
34460;DHT22;20704;51.260;22.558;2022-09-28T00:37:38;11.40;99.90
34460;DHT22;20704;51.260;22.558;2022-09-28T00:40:05;11.30;99.90
34460;DHT22;20704;51.260;22.558;2022-09-28T00:53:00;11.50;99.90
34460;DHT22;20704;51.260;22.558;2022-09-28T01:07:40;11.60;99.90
34460;DHT22;20704;51.260;22.558;2022-09-28T01:12:35;11.80;99.90
34460;DHT22;20704;51.260;22.558;2022-09-28T01:24:55;11.90;99.90
34460;DHT22;20704;51.260;22.558;2022-09-28T01:27:27;11.90;99.90
34460;DHT22;20704;51.260;22.558;2022-09-28T01:34:59;11.90;99.90
34460;DHT22;20704;51.260;22.558;2022-09-28T01:42:24;12.00;99.90
34460;DHT22;20704;51.260;22.558;2022-09-28T01:44:53;11.90;99.90
34460;DHT22;20704;51.260;22.558;2022-09-28T01:49:54;11.90;99.90
34460;DHT22;20704;51.260;22.558;2022-09-28T01:52:32;12.00;99.90
34460;DHT22;20704;51.260;22.558;2022-09-28T01:57:28;11.90;99.90
34460;DHT22;20704;51.260;22.558;2022-09-28T02:05:12;11.90;99.90
34460;DHT22;20704;51.260;22.558;2022-09-28T02:19:49;11.70;99.90
34460;DHT22;20704;51.260;22.558;2022-09-28T02:24:58;11.70;99.90
34460;DHT22;20704;51.260;22.558;2022-09-28T02:34:45;11.60;99.90
34460;DHT22;20704;51.260;22.558;2022-09-28T02:54:36;11.40;99.90
34460;DHT22;20704;51.260;22.558;2022-09-28T03:15:03;11.30;99.90
34460;DHT22;20704;51.260;22.558;2022-09-28T03:17:30;11.20;99.90
34460;DHT22;20704;51.260;22.558;2022-09-28T03:19:56;11.20;99.90
34460;DHT22;20704;51.260;22.558;2022-09-28T03:24:50;11.20;99.90
34460;DHT22;20704;51.260;22.558;2022-09-28T03:27:15;11.20;99.90
34460;DHT22;20704;51.260;22.558;2022-09-28T03:34:35;11.20;99.90
34460;DHT22;20704;51.260;22.558;2022-09-28T03:44:20;11.10;99.90
34460;DHT22;20704;51.260;22.558;2022-09-28T03:51:39;11.10;99.90
34460;DHT22;20704;51.260;22.558;2022-09-28T03:59:01;11.10;99.90
34460;DHT22;20704;51.260;22.558;2022-09-28T04:01:27;11.10;99.90
34460;DHT22;20704;51.260;22.558;2022-09-28T04:06:21;11.00;99.90
34460;DHT22;20704;51.260;22.558;2022-09-28T04:13:40;11.00;99.90
34460;DHT22;20704;51.260;22.558;2022-09-28T04:21:13;11.00;99.90
34460;DHT22;20704;51.260;22.558;2022-09-28T04:23:45;11.00;99.90
34460;DHT22;20704;51.260;22.558;2022-09-28T04:36:18;10.90;99.90
34460;DHT22;20704;51.260;22.558;2022-09-28T04:38:45;10.90;99.90
34460;DHT22;20704;51.260;22.558;2022-09-28T04:41:12;10.90;99.90
34460;DHT22;20704;51.260;22.558;2022-09-28T04:48:38;10.90;99.90
34460;DHT22;20704;51.260;22.558;2022-09-28T04:54:02;10.80;99.90
34460;DHT22;20704;51.260;22.558;2022-09-28T04:58:55;10.70;99.90
34460;DHT22;20704;51.260;22.558;2022-09-28T05:16:25;10.70;99.90
34460;DHT22;20704;51.260;22.558;2022-09-28T05:26:33;10.80;99.90
34460;DHT22;20704;51.260;22.558;2022-09-28T05:39:10;10.80;99.90
34460;DHT22;20704;51.260;22.558;2022-09-28T05:44:03;10.90;99.90
34460;DHT22;20704;51.260;22.558;2022-09-28T05:46:30;10.90;99.90
34460;DHT22;20704;51.260;22.558;2022-09-28T05:48:58;10.90;99.90
34460;DHT22;20704;51.260;22.558;2022-09-28T05:51:25;10.80;99.90
34460;DHT22;20704;51.260;22.558;2022-09-28T05:56:17;10.90;99.90
34460;DHT22;20704;51.260;22.558;2022-09-28T06:01:11;10.90;99.90
34460;DHT22;20704;51.260;22.558;2022-09-28T06:08:31;11.10;99.90
34460;DHT22;20704;51.260;22.558;2022-09-28T06:11:12;11.40;99.90
34460;DHT22;20704;51.260;22.558;2022-09-28T06:21:38;12.00;99.90
34460;DHT22;20704;51.260;22.558;2022-09-28T06:24:05;12.00;99.90
34460;DHT22;20704;51.260;22.558;2022-09-28T06:28:57;14.20;99.90
34460;DHT22;20704;51.260;22.558;2022-09-28T06:33:55;15.80;99.90
34460;DHT22;20704;51.260;22.558;2022-09-28T06:36:22;17.30;99.90
34460;DHT22;20704;51.260;22.558;2022-09-28T06:38:49;17.80;99.90
34460;DHT22;20704;51.260;22.558;2022-09-28T06:41:15;18.70;99.90
34460;DHT22;20704;51.260;22.558;2022-09-28T06:43:43;19.90;99.90
34460;DHT22;20704;51.260;22.558;2022-09-28T06:46:13;20.70;99.90
34460;DHT22;20704;51.260;22.558;2022-09-28T06:48:58;20.80;99.90
34460;DHT22;20704;51.260;22.558;2022-09-28T06:51:50;20.70;99.90
34460;DHT22;20704;51.260;22.558;2022-09-28T06:54:39;19.90;99.90
34460;DHT22;20704;51.260;22.558;2022-09-28T06:57:21;19.10;99.90
34460;DHT22;20704;51.260;22.558;2022-09-28T06:59:47;18.50;99.90
34460;DHT22;20704;51.260;22.558;2022-09-28T07:02:13;17.90;99.90
34460;DHT22;20704;51.260;22.558;2022-09-28T07:05:10;16.80;99.90
34460;DHT22;20704;51.260;22.558;2022-09-28T07:07:49;16.40;99.90
34460;DHT22;20704;51.260;22.558;2022-09-28T07:13:25;16.20;99.90
34460;DHT22;20704;51.260;22.558;2022-09-28T07:15:55;16.70;99.90
34460;DHT22;20704;51.260;22.558;2022-09-28T07:18:21;18.00;99.90
34460;DHT22;20704;51.260;22.558;2022-09-28T07:20:51;18.00;99.90
34460;DHT22;20704;51.260;22.558;2022-09-28T07:23:17;17.80;99.90
34460;DHT22;20704;51.260;22.558;2022-09-28T07:28:53;18.10;99.90
34460;DHT22;20704;51.260;22.558;2022-09-28T07:31:51;17.30;99.90
34460;DHT22;20704;51.260;22.558;2022-09-28T07:34:36;17.00;99.90
34460;DHT22;20704;51.260;22.558;2022-09-28T07:37:11;16.90;99.90
34460;DHT22;20704;51.260;22.558;2022-09-28T07:39:38;16.90;99.90
34460;DHT22;20704;51.260;22.558;2022-09-28T07:42:23;16.60;99.90
34460;DHT22;20704;51.260;22.558;2022-09-28T07:44:50;16.00;99.90
34460;DHT22;20704;51.260;22.558;2022-09-28T07:47:16;16.40;99.90
34460;DHT22;20704;51.260;22.558;2022-09-28T07:50:02;16.30;99.90
34460;DHT22;20704;51.260;22.558;2022-09-28T07:52:43;16.20;99.90
34460;DHT22;20704;51.260;22.558;2022-09-28T07:55:19;15.80;99.90
34460;DHT22;20704;51.260;22.558;2022-09-28T07:58:14;15.80;99.90
34460;DHT22;20704;51.260;22.558;2022-09-28T08:00:52;16.30;99.90
34460;DHT22;20704;51.260;22.558;2022-09-28T08:03:19;16.20;99.90
34460;DHT22;20704;51.260;22.558;2022-09-28T08:05:47;15.90;99.90
34460;DHT22;20704;51.260;22.558;2022-09-28T08:08:13;16.20;99.90
34460;DHT22;20704;51.260;22.558;2022-09-28T08:10:43;17.40;99.90
34460;DHT22;20704;51.260;22.558;2022-09-28T08:13:20;17.90;99.90
34460;DHT22;20704;51.260;22.558;2022-09-28T08:16:02;18.40;99.90
34460;DHT22;20704;51.260;22.558;2022-09-28T08:18:43;15.20;99.90
34460;DHT22;20704;51.260;22.558;2022-09-28T08:21:09;20.30;99.90
34460;DHT22;20704;51.260;22.558;2022-09-28T08:23:54;20.60;95.30
34460;DHT22;20704;51.260;22.558;2022-09-28T08:26:20;18.90;93.10
34460;DHT22;20704;51.260;22.558;2022-09-28T08:28:46;20.80;90.30
34460;DHT22;20704;51.260;22.558;2022-09-28T08:31:31;21.10;90.40
34460;DHT22;20704;51.260;22.558;2022-09-28T08:34:12;21.30;88.40
34460;DHT22;20704;51.260;22.558;2022-09-28T08:37:07;21.10;87.80
34460;DHT22;20704;51.260;22.558;2022-09-28T08:39:55;21.50;87.10
34460;DHT22;20704;51.260;22.558;2022-09-28T08:42:41;21.30;81.30
34460;DHT22;20704;51.260;22.558;2022-09-28T08:45:23;21.20;84.00
34460;DHT22;20704;51.260;22.558;2022-09-28T08:48:24;21.20;82.00
34460;DHT22;20704;51.260;22.558;2022-09-28T08:57:11;22.00;80.60
34460;DHT22;20704;51.260;22.558;2022-09-28T08:59:52;21.80;80.30
34460;DHT22;20704;51.260;22.558;2022-09-28T09:02:26;21.20;79.40
34460;DHT22;20704;51.260;22.558;2022-09-28T09:05:08;21.30;80.40
34460;DHT22;20704;51.260;22.558;2022-09-28T09:08:58;21.50;81.00
34460;DHT22;20704;51.260;22.558;2022-09-28T09:11:07;20.90;77.80
34460;DHT22;20704;51.260;22.558;2022-09-28T09:16:14;20.50;79.30
34460;DHT22;20704;51.260;22.558;2022-09-28T09:19:06;20.10;82.20
34460;DHT22;20704;51.260;22.558;2022-09-28T09:22:00;20.00;83.70
34460;DHT22;20704;51.260;22.558;2022-09-28T09:24:53;19.00;88.70
34460;DHT22;20704;51.260;22.558;2022-09-28T09:43:46;19.30;92.40
34460;DHT22;20704;51.260;22.558;2022-09-28T09:46:43;18.80;90.80
34460;DHT22;20704;51.260;22.558;2022-09-28T09:49:20;18.40;90.50
34460;DHT22;20704;51.260;22.558;2022-09-28T10:02:29;18.40;91.40
34460;DHT22;20704;51.260;22.558;2022-09-28T10:07:43;18.10;92.50
34460;DHT22;20704;51.260;22.558;2022-09-28T10:10:12;18.20;92.20
34460;DHT22;20704;51.260;22.558;2022-09-28T10:12:47;17.90;92.10
34460;DHT22;20704;51.260;22.558;2022-09-28T10:15:15;18.20;93.00
34460;DHT22;20704;51.260;22.558;2022-09-28T10:18:05;18.80;92.60
34460;DHT22;20704;51.260;22.558;2022-09-28T10:20:58;17.70;92.00
34460;DHT22;20704;51.260;22.558;2022-09-28T10:23:59;17.00;92.70
34460;DHT22;20704;51.260;22.558;2022-09-28T10:26:39;16.70;94.40
34460;DHT22;20704;51.260;22.558;2022-09-28T10:29:11;16.70;96.50
34460;DHT22;20704;51.260;22.558;2022-09-28T10:31:43;16.80;98.40
34460;DHT22;20704;51.260;22.558;2022-09-28T10:34:28;16.80;99.90
34460;DHT22;20704;51.260;22.558;2022-09-28T10:36:57;16.80;99.90
34460;DHT22;20704;51.260;22.558;2022-09-28T10:41:56;16.50;99.10
34460;DHT22;20704;51.260;22.558;2022-09-28T10:44:27;16.30;98.20
34460;DHT22;20704;51.260;22.558;2022-09-28T10:47:14;16.10;97.50
34460;DHT22;20704;51.260;22.558;2022-09-28T10:49:41;16.30;99.70
34460;DHT22;20704;51.260;22.558;2022-09-28T10:54:55;16.20;99.90
34460;DHT22;20704;51.260;22.558;2022-09-28T10:59:59;16.00;99.90
34460;DHT22;20704;51.260;22.558;2022-09-28T11:03:01;15.80;99.90
34460;DHT22;20704;51.260;22.558;2022-09-28T11:05:28;16.00;99.90
34460;DHT22;20704;51.260;22.558;2022-09-28T11:07:57;16.10;99.90
34460;DHT22;20704;51.260;22.558;2022-09-28T11:10:31;16.10;99.90
34460;DHT22;20704;51.260;22.558;2022-09-28T11:13:07;16.00;99.90
34460;DHT22;20704;51.260;22.558;2022-09-28T11:15:33;15.80;99.90
34460;DHT22;20704;51.260;22.558;2022-09-28T11:18:22;16.20;99.90
34460;DHT22;20704;51.260;22.558;2022-09-28T11:20:50;16.70;99.90
34460;DHT22;20704;51.260;22.558;2022-09-28T11:23:17;16.90;99.90
34460;DHT22;20704;51.260;22.558;2022-09-28T11:26:00;17.20;99.90
34460;DHT22;20704;51.260;22.558;2022-09-28T11:28:28;17.40;99.90
34460;DHT22;20704;51.260;22.558;2022-09-28T11:30:57;17.50;99.90
34460;DHT22;20704;51.260;22.558;2022-09-28T11:33:35;17.80;99.90
34460;DHT22;20704;51.260;22.558;2022-09-28T11:39:09;18.10;99.90
34460;DHT22;20704;51.260;22.558;2022-09-28T11:41:50;17.50;99.70
34460;DHT22;20704;51.260;22.558;2022-09-28T11:49:25;17.30;98.30
34460;DHT22;20704;51.260;22.558;2022-09-28T11:51:52;17.10;98.10
34460;DHT22;20704;51.260;22.558;2022-09-28T11:56:51;16.00;99.60
34460;DHT22;20704;51.260;22.558;2022-09-28T11:59:29;15.90;99.90
34460;DHT22;20704;51.260;22.558;2022-09-28T12:02:19;16.00;99.90
34460;DHT22;20704;51.260;22.558;2022-09-28T12:04:55;16.00;99.90
34460;DHT22;20704;51.260;22.558;2022-09-28T12:09:56;16.00;99.90
34460;DHT22;20704;51.260;22.558;2022-09-28T12:12:24;15.90;99.90
34460;DHT22;20704;51.260;22.558;2022-09-28T12:14:56;16.20;99.90
34460;DHT22;20704;51.260;22.558;2022-09-28T12:17:33;16.80;99.90
34460;DHT22;20704;51.260;22.558;2022-09-28T12:22:34;16.80;99.90
34460;DHT22;20704;51.260;22.558;2022-09-28T12:25:01;16.60;99.30
34460;DHT22;20704;51.260;22.558;2022-09-28T12:27:35;16.30;98.90
34460;DHT22;20704;51.260;22.558;2022-09-28T12:32:48;16.10;99.90
34460;DHT22;20704;51.260;22.558;2022-09-28T12:35:23;16.00;99.90
34460;DHT22;20704;51.260;22.558;2022-09-28T12:46:01;15.90;99.90
34460;DHT22;20704;51.260;22.558;2022-09-28T12:48:37;16.00;99.90
34460;DHT22;20704;51.260;22.558;2022-09-28T12:51:14;16.30;99.90
34460;DHT22;20704;51.260;22.558;2022-09-28T12:53:46;16.70;99.90
34460;DHT22;20704;51.260;22.558;2022-09-28T13:04:49;17.10;95.80
34460;DHT22;20704;51.260;22.558;2022-09-28T13:09:49;17.40;96.10
34460;DHT22;20704;51.260;22.558;2022-09-28T13:12:29;17.10;93.30
34460;DHT22;20704;51.260;22.558;2022-09-28T13:17:39;13.80;93.30
34460;DHT22;20704;51.260;22.558;2022-09-28T13:20:32;13.80;94.70
34460;DHT22;20704;51.260;22.558;2022-09-28T13:23:04;16.50;95.90
34460;DHT22;20704;51.260;22.558;2022-09-28T13:25:32;16.70;96.90
34460;DHT22;20704;51.260;22.558;2022-09-28T13:28:01;16.70;97.00
34460;DHT22;20704;51.260;22.558;2022-09-28T13:30:29;15.90;97.10
34460;DHT22;20704;51.260;22.558;2022-09-28T13:32:55;16.40;97.80
34460;DHT22;20704;51.260;22.558;2022-09-28T13:35:22;16.40;97.90
34460;DHT22;20704;51.260;22.558;2022-09-28T13:38:27;16.20;97.20
34460;DHT22;20704;51.260;22.558;2022-09-28T13:43:45;16.10;97.30
34460;DHT22;20704;51.260;22.558;2022-09-28T13:51:21;16.00;96.70
34460;DHT22;20704;51.260;22.558;2022-09-28T13:56:22;16.10;95.30
34460;DHT22;20704;51.260;22.558;2022-09-28T14:01:17;15.70;93.40
34460;DHT22;20704;51.260;22.558;2022-09-28T14:03:53;16.00;94.40
34460;DHT22;20704;51.260;22.558;2022-09-28T14:06:29;15.80;92.90
34460;DHT22;20704;51.260;22.558;2022-09-28T14:14:25;15.50;95.60
34460;DHT22;20704;51.260;22.558;2022-09-28T14:19:38;14.80;95.50
34460;DHT22;20704;51.260;22.558;2022-09-28T14:22:27;15.40;95.60
34460;DHT22;20704;51.260;22.558;2022-09-28T14:25:32;15.50;95.10
34460;DHT22;20704;51.260;22.558;2022-09-28T14:28:11;15.70;94.70
34460;DHT22;20704;51.260;22.558;2022-09-28T14:33:29;15.50;93.70
34460;DHT22;20704;51.260;22.558;2022-09-28T14:38:31;15.20;92.60
34460;DHT22;20704;51.260;22.558;2022-09-28T14:44:03;15.60;92.40
34460;DHT22;20704;51.260;22.558;2022-09-28T14:46:31;15.60;93.40
34460;DHT22;20704;51.260;22.558;2022-09-28T14:48:59;15.50;91.90
34460;DHT22;20704;51.260;22.558;2022-09-28T15:01:51;15.20;93.10
34460;DHT22;20704;51.260;22.558;2022-09-28T15:04:18;15.20;95.00
34460;DHT22;20704;51.260;22.558;2022-09-28T15:06:48;15.20;93.40
34460;DHT22;20704;51.260;22.558;2022-09-28T15:09:36;12.50;92.50
34460;DHT22;20704;51.260;22.558;2022-09-28T15:14:31;15.20;93.90
34460;DHT22;20704;51.260;22.558;2022-09-28T15:16:58;15.00;92.70
34460;DHT22;20704;51.260;22.558;2022-09-28T15:21:56;14.30;94.40
34460;DHT22;20704;51.260;22.558;2022-09-28T15:24:26;14.70;94.80
34460;DHT22;20704;51.260;22.558;2022-09-28T15:26:52;14.80;96.10
34460;DHT22;20704;51.260;22.558;2022-09-28T15:29:19;14.80;95.10
34460;DHT22;20704;51.260;22.558;2022-09-28T15:31:45;18.90;95.90
34460;DHT22;20704;51.260;22.558;2022-09-28T15:34:28;14.90;95.40
34460;DHT22;20704;51.260;22.558;2022-09-28T15:37:15;14.60;96.10
34460;DHT22;20704;51.260;22.558;2022-09-28T15:39:42;14.60;96.70
34460;DHT22;20704;51.260;22.558;2022-09-28T15:42:13;14.60;96.80
34460;DHT22;20704;51.260;22.558;2022-09-28T15:44:39;14.40;97.00
34460;DHT22;20704;51.260;22.558;2022-09-28T15:47:23;14.50;97.80
34460;DHT22;20704;51.260;22.558;2022-09-28T15:50:03;14.40;98.10
34460;DHT22;20704;51.260;22.558;2022-09-28T15:52:43;14.20;98.50
34460;DHT22;20704;51.260;22.558;2022-09-28T15:57:46;14.50;99.70
34460;DHT22;20704;51.260;22.558;2022-09-28T16:00:22;14.00;99.90
34460;DHT22;20704;51.260;22.558;2022-09-28T16:02:56;13.90;99.90
34460;DHT22;20704;51.260;22.558;2022-09-28T16:08:15;13.90;99.90
34460;DHT22;20704;51.260;22.558;2022-09-28T16:10:56;13.90;99.90
34460;DHT22;20704;51.260;22.558;2022-09-28T16:13:23;13.50;99.90
34460;DHT22;20704;51.260;22.558;2022-09-28T16:15:53;14.40;99.90
34460;DHT22;20704;51.260;22.558;2022-09-28T16:18:20;13.60;99.90
34460;DHT22;20704;51.260;22.558;2022-09-28T16:20:47;13.50;99.90
34460;DHT22;20704;51.260;22.558;2022-09-28T16:25:46;13.40;99.90
34460;DHT22;20704;51.260;22.558;2022-09-28T16:28:58;13.30;99.90
34460;DHT22;20704;51.260;22.558;2022-09-28T16:31:01;13.30;99.90
34460;DHT22;20704;51.260;22.558;2022-09-28T16:33:42;13.90;99.90
34460;DHT22;20704;51.260;22.558;2022-09-28T16:36:12;12.90;99.90
34460;DHT22;20704;51.260;22.558;2022-09-28T16:38:42;13.20;99.90
34460;DHT22;20704;51.260;22.558;2022-09-28T16:41:07;13.20;99.90
34460;DHT22;20704;51.260;22.558;2022-09-28T16:43:34;13.70;99.90
34460;DHT22;20704;51.260;22.558;2022-09-28T16:46:04;12.90;99.90
34460;DHT22;20704;51.260;22.558;2022-09-28T16:48:31;12.80;99.90
34460;DHT22;20704;51.260;22.558;2022-09-28T16:50:58;12.50;99.90
34460;DHT22;20704;51.260;22.558;2022-09-28T16:53:24;12.70;99.90
34460;DHT22;20704;51.260;22.558;2022-09-28T16:56:09;12.70;99.90
34460;DHT22;20704;51.260;22.558;2022-09-28T16:58:35;8.20;99.90
34460;DHT22;20704;51.260;22.558;2022-09-28T17:01:02;12.30;99.90
34460;DHT22;20704;51.260;22.558;2022-09-28T17:03:28;12.30;99.90
34460;DHT22;20704;51.260;22.558;2022-09-28T17:05:54;12.30;99.90
34460;DHT22;20704;51.260;22.558;2022-09-28T17:08:21;12.30;99.90
34460;DHT22;20704;51.260;22.558;2022-09-28T17:10:52;12.20;99.90
34460;DHT22;20704;51.260;22.558;2022-09-28T17:13:19;12.20;99.90
34460;DHT22;20704;51.260;22.558;2022-09-28T17:15:45;12.20;99.90
34460;DHT22;20704;51.260;22.558;2022-09-28T17:18:16;12.10;99.90
34460;DHT22;20704;51.260;22.558;2022-09-28T17:20:43;11.80;99.90
34460;DHT22;20704;51.260;22.558;2022-09-28T17:23:09;12.00;99.90
34460;DHT22;20704;51.260;22.558;2022-09-28T17:25:35;12.20;99.90
34460;DHT22;20704;51.260;22.558;2022-09-28T17:28:02;12.20;99.90
34460;DHT22;20704;51.260;22.558;2022-09-28T17:30:28;12.20;99.90
34460;DHT22;20704;51.260;22.558;2022-09-28T17:32:54;13.30;99.90
34460;DHT22;20704;51.260;22.558;2022-09-28T17:35:20;12.10;99.90
34460;DHT22;20704;51.260;22.558;2022-09-28T17:37:46;12.00;99.90
34460;DHT22;20704;51.260;22.558;2022-09-28T17:40:20;12.30;99.90
34460;DHT22;20704;51.260;22.558;2022-09-28T17:42:46;11.90;99.90
34460;DHT22;20704;51.260;22.558;2022-09-28T17:45:16;9.70;99.90
34460;DHT22;20704;51.260;22.558;2022-09-28T17:47:42;12.00;99.90
34460;DHT22;20704;51.260;22.558;2022-09-28T17:52:44;12.00;99.90
34460;DHT22;20704;51.260;22.558;2022-09-28T17:55:10;11.90;99.90
34460;DHT22;20704;51.260;22.558;2022-09-28T17:57:36;12.80;99.90
34460;DHT22;20704;51.260;22.558;2022-09-28T18:00:02;12.00;99.90
34460;DHT22;20704;51.260;22.558;2022-09-28T18:02:30;11.90;99.90
34460;DHT22;20704;51.260;22.558;2022-09-28T18:04:56;11.90;99.90
34460;DHT22;20704;51.260;22.558;2022-09-28T18:07:22;11.80;99.90
34460;DHT22;20704;51.260;22.558;2022-09-28T18:09:51;12.40;99.90
34460;DHT22;20704;51.260;22.558;2022-09-28T18:12:17;11.80;99.90
34460;DHT22;20704;51.260;22.558;2022-09-28T18:14:43;9.90;99.90
34460;DHT22;20704;51.260;22.558;2022-09-28T18:17:09;11.90;99.90
34460;DHT22;20704;51.260;22.558;2022-09-28T18:19:35;11.90;99.90
34460;DHT22;20704;51.260;22.558;2022-09-28T18:22:01;11.90;99.90
34460;DHT22;20704;51.260;22.558;2022-09-28T18:24:27;11.70;99.90
34460;DHT22;20704;51.260;22.558;2022-09-28T18:26:53;11.70;99.90
34460;DHT22;20704;51.260;22.558;2022-09-28T18:29:19;10.50;99.90
34460;DHT22;20704;51.260;22.558;2022-09-28T18:31:45;11.30;99.90
34460;DHT22;20704;51.260;22.558;2022-09-28T18:34:13;11.60;99.90
34460;DHT22;20704;51.260;22.558;2022-09-28T18:36:40;11.20;99.90
34460;DHT22;20704;51.260;22.558;2022-09-28T18:39:06;11.10;99.90
34460;DHT22;20704;51.260;22.558;2022-09-28T18:41:32;12.30;99.90
34460;DHT22;20704;51.260;22.558;2022-09-28T18:43:58;11.20;99.90
34460;DHT22;20704;51.260;22.558;2022-09-28T18:46:27;10.90;99.90
34460;DHT22;20704;51.260;22.558;2022-09-28T18:48:53;10.90;99.90
34460;DHT22;20704;51.260;22.558;2022-09-28T18:51:20;10.80;99.90
34460;DHT22;20704;51.260;22.558;2022-09-28T18:53:46;10.80;99.90
34460;DHT22;20704;51.260;22.558;2022-09-28T18:56:13;10.70;99.90
34460;DHT22;20704;51.260;22.558;2022-09-28T18:58:40;10.70;99.90
34460;DHT22;20704;51.260;22.558;2022-09-28T19:01:07;10.70;99.90
34460;DHT22;20704;51.260;22.558;2022-09-28T19:03:33;10.70;99.90
34460;DHT22;20704;51.260;22.558;2022-09-28T19:05:59;10.60;99.90
34460;DHT22;20704;51.260;22.558;2022-09-28T19:08:25;10.70;99.90
34460;DHT22;20704;51.260;22.558;2022-09-28T19:10:51;10.70;99.90
34460;DHT22;20704;51.260;22.558;2022-09-28T19:13:17;10.50;99.90
34460;DHT22;20704;51.260;22.558;2022-09-28T19:15:43;10.70;99.90
34460;DHT22;20704;51.260;22.558;2022-09-28T19:18:10;10.70;99.90
34460;DHT22;20704;51.260;22.558;2022-09-28T19:20:36;14.20;99.90
34460;DHT22;20704;51.260;22.558;2022-09-28T19:23:02;10.70;99.90
34460;DHT22;20704;51.260;22.558;2022-09-28T19:25:28;10.80;99.90
34460;DHT22;20704;51.260;22.558;2022-09-28T19:27:54;10.70;99.90
34460;DHT22;20704;51.260;22.558;2022-09-28T19:30:20;11.10;99.90
34460;DHT22;20704;51.260;22.558;2022-09-28T19:32:46;10.90;99.90
34460;DHT22;20704;51.260;22.558;2022-09-28T19:35:12;11.20;99.90
34460;DHT22;20704;51.260;22.558;2022-09-28T19:37:38;11.00;99.90
34460;DHT22;20704;51.260;22.558;2022-09-28T19:40:04;10.80;99.90
34460;DHT22;20704;51.260;22.558;2022-09-28T19:42:31;10.90;99.90
34460;DHT22;20704;51.260;22.558;2022-09-28T19:44:57;11.90;99.90
34460;DHT22;20704;51.260;22.558;2022-09-28T19:47:23;11.10;99.90
34460;DHT22;20704;51.260;22.558;2022-09-28T19:49:49;12.10;99.90
34460;DHT22;20704;51.260;22.558;2022-09-28T19:52:14;10.90;99.90
34460;DHT22;20704;51.260;22.558;2022-09-28T19:54:45;10.90;99.90
34460;DHT22;20704;51.260;22.558;2022-09-28T19:57:16;10.90;99.90
34460;DHT22;20704;51.260;22.558;2022-09-28T19:59:44;11.00;99.90
34460;DHT22;20704;51.260;22.558;2022-09-28T20:02:10;11.00;99.90
34460;DHT22;20704;51.260;22.558;2022-09-28T20:04:36;10.80;99.90
34460;DHT22;20704;51.260;22.558;2022-09-28T20:07:02;11.30;99.90
34460;DHT22;20704;51.260;22.558;2022-09-28T20:09:28;10.90;99.90
34460;DHT22;20704;51.260;22.558;2022-09-28T20:11:54;11.80;99.90
34460;DHT22;20704;51.260;22.558;2022-09-28T20:14:20;11.00;99.90
34460;DHT22;20704;51.260;22.558;2022-09-28T20:16:45;10.90;99.90
34460;DHT22;20704;51.260;22.558;2022-09-28T20:19:12;11.00;99.90
34460;DHT22;20704;51.260;22.558;2022-09-28T20:21:37;10.90;99.90
34460;DHT22;20704;51.260;22.558;2022-09-28T20:24:03;11.00;99.90
34460;DHT22;20704;51.260;22.558;2022-09-28T20:26:30;11.00;99.90
34460;DHT22;20704;51.260;22.558;2022-09-28T20:29:04;11.00;99.90
34460;DHT22;20704;51.260;22.558;2022-09-28T20:31:32;10.90;99.90
34460;DHT22;20704;51.260;22.558;2022-09-28T20:34:01;11.10;99.90
34460;DHT22;20704;51.260;22.558;2022-09-28T20:36:27;10.00;99.90
34460;DHT22;20704;51.260;22.558;2022-09-28T20:38:56;11.00;99.90
34460;DHT22;20704;51.260;22.558;2022-09-28T20:41:23;11.50;99.90
34460;DHT22;20704;51.260;22.558;2022-09-28T20:43:50;9.00;99.90
34460;DHT22;20704;51.260;22.558;2022-09-28T20:46:16;11.40;99.90
34460;DHT22;20704;51.260;22.558;2022-09-28T20:48:44;11.30;99.90
34460;DHT22;20704;51.260;22.558;2022-09-28T20:51:10;11.40;99.90
34460;DHT22;20704;51.260;22.558;2022-09-28T20:53:39;11.30;99.90
34460;DHT22;20704;51.260;22.558;2022-09-28T20:56:08;11.60;99.90
34460;DHT22;20704;51.260;22.558;2022-09-28T20:58:37;11.40;99.90
34460;DHT22;20704;51.260;22.558;2022-09-28T21:01:04;11.40;99.90
34460;DHT22;20704;51.260;22.558;2022-09-28T21:03:33;11.40;99.90
34460;DHT22;20704;51.260;22.558;2022-09-28T21:05:58;11.30;99.90
34460;DHT22;20704;51.260;22.558;2022-09-28T21:08:24;14.30;99.90
34460;DHT22;20704;51.260;22.558;2022-09-28T21:10:51;11.20;99.90
34460;DHT22;20704;51.260;22.558;2022-09-28T21:13:20;11.20;99.90
34460;DHT22;20704;51.260;22.558;2022-09-28T21:15:47;11.20;99.90
34460;DHT22;20704;51.260;22.558;2022-09-28T21:18:12;11.30;99.90
34460;DHT22;20704;51.260;22.558;2022-09-28T21:20:45;10.90;99.90
34460;DHT22;20704;51.260;22.558;2022-09-28T21:23:12;11.20;99.90
34460;DHT22;20704;51.260;22.558;2022-09-28T21:25:38;10.90;99.90
34460;DHT22;20704;51.260;22.558;2022-09-28T21:28:04;11.20;99.90
34460;DHT22;20704;51.260;22.558;2022-09-28T21:30:30;11.20;99.90
34460;DHT22;20704;51.260;22.558;2022-09-28T21:32:56;11.10;99.90
34460;DHT22;20704;51.260;22.558;2022-09-28T21:35:22;11.20;99.90
34460;DHT22;20704;51.260;22.558;2022-09-28T21:37:49;11.30;99.90
34460;DHT22;20704;51.260;22.558;2022-09-28T21:40:14;11.30;99.90
34460;DHT22;20704;51.260;22.558;2022-09-28T21:45:08;11.30;99.90
34460;DHT22;20704;51.260;22.558;2022-09-28T21:47:34;11.30;99.90
34460;DHT22;20704;51.260;22.558;2022-09-28T21:50:00;11.20;99.90
34460;DHT22;20704;51.260;22.558;2022-09-28T21:52:26;6.90;99.90
34460;DHT22;20704;51.260;22.558;2022-09-28T21:54:52;11.20;99.90
34460;DHT22;20704;51.260;22.558;2022-09-28T21:57:18;11.40;99.90
34460;DHT22;20704;51.260;22.558;2022-09-28T21:59:44;6.30;99.90
34460;DHT22;20704;51.260;22.558;2022-09-28T22:02:09;11.20;99.90
34460;DHT22;20704;51.260;22.558;2022-09-28T22:04:35;11.20;99.90
34460;DHT22;20704;51.260;22.558;2022-09-28T22:07:01;9.00;99.90
34460;DHT22;20704;51.260;22.558;2022-09-28T22:09:27;11.20;99.90
34460;DHT22;20704;51.260;22.558;2022-09-28T22:11:53;11.30;99.90
34460;DHT22;20704;51.260;22.558;2022-09-28T22:14:19;11.30;99.90
34460;DHT22;20704;51.260;22.558;2022-09-28T22:16:45;11.20;99.90